Aérodrome :
LOGIN :

S'inscrire | Disclaimer

   EN    FR    IT 

 










Légende :    VFR   VFR Marginal   IFR   IFR Intensif   IFR Très Intensif
Visi : 
Plafond : 
>= 8 km
>= 3000ft
5 à 8 km
1000 à 3000 ft
1500m à 5 km
500 à 1000 ft
800 à 1500m
200 à 500 ft
< 800m
< 200 ft
Symboles :   Orages  Brouillard  Fortes neiges  Fortes précipitations  Vent > 20 kt
SIGMETs :   Divers  Orages  Givrage  Turbulence  Onde Orograph.  Cendres Volcan.







- Altitude de l'aérodrome : 1234 ft
- Code IATA : LUX


ELLX - Luxembourg Findel

DERNIER METAR :
  • 171650Z 22005KT 180V270 9999 BKN030 20/17 Q1018 NOSIG

METARs EXPIRÉS :
  • 171620Z 23006KT 9999 SCT030 BKN060 20/17 Q1018 NOSIG
  • 171550Z 25008KT 9999 FEW007 BKN025 19/17 Q1018 NOSIG
  • 171520Z 24009KT 9999 SCT012 BKN020 19/17 Q1019 NOSIG
  • 171450Z 25012KT 9999 FEW010 BKN024 19/16 Q1019 NOSIG
  • 171420Z AUTO 25015KT 9999 DZ FEW011/// BKN026/// OVC029/// 20/16 Q1019 NOSIG

TAF TAF ELLX
Valide du 17 à 12h jusqu'au 18 à 18h UTC


171100Z 1712/1818 24012KT 9999 SCT030
BECMG 1716/1718 21007KT BKN030
BECMG 1803/1805 7000 -RA SCT012 BKN020
TEMPO 1806/1810 24015G25KT 4000 RA SHRA SCT006 SCT012TCU BKN015
BECMG 1811/1813 27010KT 9999 NSW SCT025
TEMPO 1813/1818 7000 -SHRA BKN015
ATIS : +352 4798 27300
Météo : +352 4798 27010 / 27050
Pas de NOTAMs connus pour ce terrain.



MET'MAP, la Météo Aéronautique d'un coup d'oeil ! - Copyright ORBIFLY Décembre 2007 - Disclaimer

ORBIFLY MET'MAP TEAM :

Programmation & Développement : Alexandra Zaïnal
Conception & Développement : Baudouin d'Aumeries
Co-Programmation & Développement : Marc-Olivier Méhu
Soutien technique & logistique : Manuel Goepfert

Contact : metmap@orbifly.com




SOURCES & CREDITS :

   NOAA